KGTR/GTR METAR and TAF weather

Enter ICAO airport designator
Station Type Date Time Source
KGTR METAR 2021/01/16 02:56 UTC NOAA

KGTR 160256Z AUTO 26004KT 10SM OVC095 02/M04 A2985 RMK AO2 SLP116 T00171044 51006 FZRANO


Station Type Date Time Source
KGTR Decoded METAR 2021/01/16 02:56 UTC NOAA

Columbus/West Point/Starkville, Golden Triangle Regional Airport, MS, United States (KGTR) 33-27N 088-35W
Jan 15, 2021 - 09:56 PM EST / 2021.01.16 0256 UTC
Wind: from the W (260 degrees) at 5 MPH (4 KT):0
Visibility: 10 mile(s):0
Sky conditions: overcast
Temperature: 35.1 F (1.7 C)
Dew Point: 24.1 F (-4.4 C)
Relative Humidity: 63%
Pressure (altimeter): 29.85 in. Hg (1010 hPa)
Pressure tendency: 0.02 inches (0.6 hPa) higher than three hours ago
ob: KGTR 160256Z AUTO 26004KT 10SM OVC095 02/M04 A2985 RMK AO2 SLP116 T00171044 51006 FZRANO
cycle: 3

Station Type Date Time Source
KGTR TAF 2021/01/15 18:22 UTC NOAA

TAF KGTR 151720Z 1518/1618 26007G15KT P6SM SKC
FM151900 25018G28KT P6SM OVC100
FM160200 26010KT P6SM SCT070

Example: see airport list